デンパサール国際空港の過去48時間の天気

デンパサール国際空港 (Ngurah Rai International Airport)

現在時刻: 5/26 09:02 WITA (5/26 01:02 UTC) 以下の時間は現地時間です。

過去48時間のMETAR気象情報
時間 風向 風速(m/s) 視程 気温(℃) 湿度(%) 気圧(hPa) 天気現象
26 08:30 北東 2 10km以上 28 89 1010
26 08:00 2 10km以上 27 94 1010
26 07:30 南東 4 10km以上 27 94 1009
26 07:00 北東 2 10km以上 26 94 1009
26 06:30 2 10km以上 27 89 1009
26 06:00 2 10km以上 26 94 1009
26 05:30 南東 3 10km以上 27 94 1008
26 05:00 東南東 2 10km以上 27 94 1008
26 04:30 東南東 2 7000m 27 94 1008 弱い雨
26 04:00 2 10km以上 27 89 1008
26 03:30 不定 1 10km以上 27 89 1008
26 03:00 2 10km以上 27 89 1009
26 02:30 1 10km以上 26 94 1009
26 02:00 南南東 3 10km以上 27 89 1009
26 01:30 南南東 5 6000m 27 89 1010 弱い雷雨
26 01:00 北北東 3 10km以上 28 89 1010
26 00:30 北北東 3 10km以上 28 89 1010
25 23:30 北東 2 10km以上 28 94 1010
25 23:00 2 10km以上 28 89 1010
25 22:30 東北東 3 10km以上 28 89 1010
25 22:00 東北東 3 10km以上 28 94 1010
25 21:30 3 10km以上 28 94 1010
25 21:00 3 10km以上 28 94 1010
25 20:30 3 10km以上 29 89 1010
25 20:00 東南東 3 10km以上 29 89 1010
25 19:30 南東 5 8000m 29 89 1009 弱い雨
25 19:00 南東 4 10km以上 29 89 1009
25 18:30 3 10km以上 29 84 1009
25 18:00 東南東 3 10km以上 29 84 1008
25 17:30 南南東 4 10km以上 29 84 1008
25 17:00 南東 4 10km以上 30 79 1008
25 16:30 東南東 5 10km以上 30 79 1008
25 16:00 東南東 4 10km以上 30 75 1008
25 15:30 東南東 4 10km以上 31 75 1008
25 15:00 南東 4 10km以上 31 75 1008
25 14:30 南東 5 10km以上 31 75 1008
25 14:00 南東 4 10km以上 31 75 1008
25 13:30 南東 5 10km以上 31 75 1009
25 13:00 東南東 5 10km以上 31 75 1009
25 12:30 東南東 4 10km以上 31 75 1009
25 12:00 東南東 4 10km以上 31 75 1010
25 11:30 5 10km以上 30 79 1011
25 11:00 4 10km以上 30 79 1011
25 10:30 東南東 5 10km以上 30 79 1011
25 10:00 4 10km以上 29 84 1012
25 09:30 東北東 3 10km以上 30 79 1012
25 09:00 東北東 3 10km以上 29 84 1012
25 08:30 北東 3 10km以上 28 89 1011
25 08:00 東北東 3 10km以上 28 89 1011
25 07:30 北東 3 10km以上 27 94 1011
25 07:00 3 10km以上 27 89 1011
25 06:30 2 8000m 27 94 1011 弱い雨
25 06:00 2 10km以上 26 94 1011
25 05:30 2 10km以上 27 94 1010
25 05:00 北東 2 10km以上 27 94 1011
25 04:30 1 10km以上 27 94 1011
25 03:30 東北東 2 10km以上 26 94 1010
25 03:00 3 10km以上 27 89 1011
25 02:30 3 10km以上 27 89 1011
25 02:00 5 10km以上 27 89 1011
25 01:30 東南東 5 10km以上 27 94 1011
25 01:00 南東 4 10km以上 28 89 1012
25 00:30 東南東 4 10km以上 28 89 1012
25 00:00 東南東 4 10km以上 28 89 1012
24 23:30 東南東 4 8000m 28 89 1012 弱い雨
24 23:00 東南東 5 10km以上 28 89 1012
24 22:30 東南東 6 10km以上 28 89 1012
24 22:00 東南東 5 10km以上 29 84 1012
24 21:30 東南東 5 10km以上 29 89 1012
24 21:00 南東 6 10km以上 29 89 1012
24 20:30 東南東 6 10km以上 29 84 1012
24 20:00 東南東 6 10km以上 29 84 1011
24 19:30 東南東 7 10km以上 29 84 1011
24 19:00 東南東 6 10km以上 29 84 1011
24 18:30 南東 7 10km以上 30 79 1010
24 18:00 南東 7 10km以上 30 79 1010
24 17:30 南東 7 10km以上 30 79 1009
24 17:00 南東 7 10km以上 30 79 1009
24 16:30 南東 7 10km以上 30 79 1009
24 16:00 東南東 7 10km以上 30 79 1009
24 15:30 南東 7 10km以上 30 79 1008
24 15:00 東南東 7 10km以上 31 75 1008
24 14:30 東南東 6 10km以上 31 70 1008
24 14:00 東南東 6 10km以上 31 70 1009
24 13:30 東南東 6 10km以上 31 75 1009
24 13:00 東南東 5 10km以上 31 70 1009
24 12:30 東南東 6 10km以上 31 70 1010
24 12:00 東南東 5 10km以上 31 70 1010
24 11:30 東南東 5 10km以上 31 75 1010
24 11:00 東南東 5 10km以上 31 70 1011
24 10:30 東南東 5 10km以上 30 75 1011
24 10:00 東南東 5 10km以上 30 79 1011
24 09:30 4 10km以上 30 79 1011
WADD 260030Z 04004KT 350V090 9999 SCT016 28/26 Q1010 NOSIG
WADD 260000Z 10004KT 9999 SCT016 27/26 Q1010 NOSIG
WADD 252330Z 14007KT 9999 FEW015CB SCT016 27/26 Q1009 RETS NOSIG
WADD 252300Z 05003KT 9999 TS FEW015CB SCT016 26/25 Q1009 NOSIG
WADD 252230Z 01004KT 360V090 9999 TS FEW015CB SCT 1600FT 27/25 Q1009 NOSIG RMK CB IN APCH
WADD 252200Z 10004KT 070V130 9999 SCT 1600FT 26/25 Q1009 NOSIG
WADD 252130Z 14005KT 9999 SCT016 27/26 Q1008 NOSIG
WADD 252100Z 12003KT 9999 FEW016 27/26 Q1008 NOSIG
WADD 252030Z 12004KT 080V140 7000 -RA SCT016 27/26 Q1008 TEMPO TL2130 7000 -RA
WADD 252000Z 10003KT 9999 FEW016 27/25 Q1008 NOSIG
WADD 251930Z VRB02KT 9999 FEW015CB FEW01627/25 Q1008 RETS NOSIG
WADD 251900Z 10003KT 9999 TS FEW015CB FEW016 27/25 Q1009 NOSIG
WADD 251830Z 09002KT 9999 TS FEW015CB SCT015 26/25 Q1009 NOSIG
WADD 251800Z 16006KT 9999 TS FEW015CB SCT015 27/25 Q1009 NOSIG
WADD 251730Z 15009KT 6000 -TSRA FEW015CB BKN015 27/25 Q1010 TEMPO TL1830 6000 -TSRA
WADD 251700Z 03006KT 9999 FEW015CB SCT015 28/26 Q1010 NOSIG
WADD 251630Z 03005KT 9999 FEW015CB SCT015 28/26 Q1010 RETS NOSIG
WADD 251530Z 04004KT 9999 SCT016 28/27 Q1010 NOSIG
WADD 251500Z 08004KT 040V110 9999 FEW015CB SCT016 28/26 Q1010 NOSIG
WADD 251430Z 06005KT 040V100 9999 FEW015CB SCT016 28/26 Q1010 NOSIG
WADD 251400Z 07006KT 9999 SCT017 28/27 Q1010 NOSIG
WADD 251330Z 09005KT 9999 FEW017 28/27 Q1010 NOSIG
WADD 251300Z 09006KT 9999 FEW017 28/27 Q1010 NOSIG
WADD 251230Z 10006KT 9999 SCT016 29/27 Q1010 NOSIG
WADD 251200Z 12005KT 9999 BKN016 29/27 Q1010 RERA NOSIG
WADD 251130Z 13009KT 8000 -RA BKN016 29/27 Q1009 TEMPO TL1230 8000 -RA
WADD 251100Z 14007KT 9999 FEW017 29/27 Q1009 NOSIG
WADD 251030Z 10006KT 9999 FEW017 29/26 Q1009 NOSIG
WADD 251000Z 11005KT 9999 SCT016 29/26 Q1008 NOSIG
WADD 250930Z 15007KT 9999 SCT016 29/26 Q1008 NOSIG
WADD 250900Z 14008KT 9999 SCT016 30/26 Q1008 NOSIG
WADD 250830Z 12010KT 9999 SCT016 30/26 Q1008 NOSIG
WADD 250800Z 11008KT 9999 SCT016 30/25 Q1008 NOSIG
WADD 250730Z 12008KT 9999 FEW017 31/26 Q1008 NOSIG
WADD 250700Z 14008KT 9999 FEW017 31/26 Q1008 NOSIG
WADD 250630Z 14010KT 9999 FEW017 31/26 Q1008 NOSIG
WADD 250600Z 13008KT 9999 FEW017 31/26 Q1008 NOSIG
WADD 250530Z 14009KT 9999 FEW017 31/26 Q1009 NOSIG
WADD 250500Z 12009KT 9999 FEW017 31/26 Q1009 NOSIG
WADD 250430Z 11008KT 080V140 9999 FEW017 31/26 Q1009 NOSIG
WADD 250400Z 11007KT 060V130 9999 FEW017 31/26 Q1010 NOSIG
WADD 250330Z 10009KT 9999 FEW017 30/26 Q1011 NOSIG
WADD 250300Z 10008KT 9999 FEW017 30/26 Q1011 NOSIG
WADD 250230Z 11009KT 9999 FEW017 30/26 Q1011 NOSIG
WADD 250200Z 08007KT 9999 SCT016 29/26 Q1012 NOSIG
WADD 250130Z 06006KT 040V130 9999 SCT016 30/26 Q1012 NOSIG
WADD 250100Z 06005KT 020V090 9999 SCT016 29/26 Q1012 NOSIG
WADD 250030Z 05006KT 9999 SCT016 28/26 Q1011 NOSIG
WADD 250000Z 06006KT 9999 SCT016 28/26 Q1011 NOSIG
WADD 242330Z 05005KT 010V080 9999 BKN016 27/26 Q1011 NOSIG
WADD 242300Z 08006KT 9999 FEW015CB BKN015 27/25 Q1011 RERA NOSIG RMK CB IN APCH
WADD 242230Z 08003KT 8000 -RA FEW015CB BKN015 27/26 Q1011 TEMPO TL2330 -RA RMK CB IN APCH
WADD 242200Z 01004KT 9999 FEW015CB SCT016 26/25 Q1011 NOSIG RMK CB IN CLIMB-OUT
WADD 242130Z 01004KT 9999 SCT016 27/26 Q1010 NOSIG
WADD 242100Z 04003KT 9999 SCT016 27/26 Q1011 NOSIG
WADD 242030Z 08002KT 9999 SCT016 27/26 Q1011 NOSIG
WADD 241930Z 07004KT 9999 SCT016 26/25 Q1010 NOSIG
WADD 241900Z 09005KT 9999 SCT016 27/25 Q1011 NOSIG
WADD 241830Z 09006KT 9999 SCT016 27/25 Q1011 NOSIG
WADD 241800Z 09009KT 9999 SCT016 27/25 Q1011 NOSIG
WADD 241730Z 12009KT 9999 SCT016 27/26 Q1011 NOSIG
WADD 241700Z 13008KT 9999 FEW015CB SCT016 28/26 Q1012 NOSIG
WADD 241630Z 12007KT 9999 FEW015CB SCT016 28/26 Q1012 NOSIG
WADD 241600Z 11007KT 9999 FEW015CB SCT015 28/26 Q1012 RERA NOSIG
WADD 241530Z 12007KT 8000 -RA FEW015CB BKN015 28/26 Q1012 RETS TEMPO TL1630 -RA
WADD 241500Z 12010KT 9999 TS FEW015CB SCT015 28/26 Q1012 NOSIG
WADD 241430Z 12012KT 9999 TS FEW015CB SCT015 28/26 Q1012 NOSIG
WADD 241400Z 11010KT 9999 TS FEW015CB SCT016 29/26 Q1012 NOSIG
WADD 241330Z 11009KT 9999 FEW015CB SCT016 29/27 Q1012 NOSIG
WADD 241300Z 13011KT 9999 FEW016CB SCT016 29/27 Q1012 NOSIG
WADD 241230Z 12011KT 9999 FEW016CB SCT016 29/26 Q1012 RETS NOSIG
WADD 241200Z 12011KT 9999 FEW016CB SCT016 29/26 Q1011 NOSIG RMK CB IN APCH
WADD 241130Z 12013KT 9999 FEW015CB SCT016 29/26 Q1011 NOSIG RMK CB IN APCH
WADD 241100Z 12012KT 9999 SCT017 29/26 Q1011 NOSIG
WADD 241030Z 13013KT 9999 SCT017 30/26 Q1010 NOSIG
WADD 241000Z 13013KT 9999 SCT017 30/26 Q1010 NOSIG
WADD 240930Z 13014KT 9999 SCT017 30/26 Q1009 NOSIG
WADD 240900Z 13013KT 9999 SCT017 30/26 Q1009 NOSIG
WADD 240830Z 13014KT 9999 SCT017 30/26 Q1009 NOSIG
WADD 240800Z 12013KT 9999 SCT017 30/26 Q1009 NOSIG
WADD 240730Z 13013KT 9999 SCT017 30/26 Q1008 NOSIG
WADD 240700Z 12014KT 9999 SCT017 31/26 Q1008 NOSIG
WADD 240630Z 12012KT 9999 FEW017 31/25 Q1008 NOSIG
WADD 240600Z 12011KT 9999 FEW017 31/25 Q1009 NOSIG
WADD 240530Z 11011KT 9999 FEW017 31/26 Q1009 NOSIG
WADD 240500Z 12010KT 9999 FEW017 31/25 Q1009 NOSIG
WADD 240430Z 12011KT 9999 FEW017 31/25 Q1010 NOSIG
WADD 240400Z 11010KT 9999 FEW017 31/25 Q1010 NOSIG
WADD 240330Z 12010KT 9999 FEW017 31/26 Q1010 NOSIG
WADD 240300Z 12010KT 9999 FEW017 31/25 Q1011 NOSIG
WADD 240230Z 11009KT 9999 FEW017 30/25 Q1011 NOSIG
WADD 240200Z 12009KT 9999 FEW017 30/26 Q1011 NOSIG
WADD 240130Z 10007KT 9999 FEW017 30/26 Q1011 NOSIG